sensor_id;sensor_type;location;lat;lon;timestamp;pressure;altitude;pressure_sealevel;temperature;humidity
20210;BME280;10264;53.178;5.840;2023-06-22T06:38:12;-16708.94;;;-141.76;100.00
20210;BME280;10264;53.178;5.840;2023-06-22T06:40:54;-16708.94;;;-141.76;100.00
20210;BME280;10264;53.178;5.840;2023-06-22T06:43:32;-16708.94;;;-141.76;100.00
20210;BME280;10264;53.178;5.840;2023-06-22T06:49:57;-16708.94;;;-141.76;100.00
20210;BME280;10264;53.178;5.840;2023-06-22T06:52:59;-16708.94;;;-141.76;100.00
20210;BME280;10264;53.178;5.840;2023-06-22T06:59:18;-16708.94;;;-141.76;100.00
20210;BME280;10264;53.178;5.840;2023-06-22T07:02:12;-16708.94;;;-141.76;100.00
20210;BME280;10264;53.178;5.840;2023-06-22T07:05:21;-16708.94;;;-141.76;100.00
20210;BME280;10264;53.178;5.840;2023-06-22T07:08:11;-16708.94;;;-141.76;100.00
20210;BME280;10264;53.178;5.840;2023-06-22T07:10:58;-16708.94;;;-141.76;100.00
20210;BME280;10264;53.178;5.840;2023-06-22T07:14:05;-16708.94;;;-141.76;100.00
20210;BME280;10264;53.178;5.840;2023-06-22T07:17:33;-16708.94;;;-141.76;100.00
20210;BME280;10264;53.178;5.840;2023-06-22T07:20:40;-16708.94;;;-141.76;100.00
20210;BME280;10264;53.178;5.840;2023-06-22T07:24:11;-16708.94;;;-141.76;100.00
20210;BME280;10264;53.178;5.840;2023-06-22T07:31:20;-16708.94;;;-141.76;100.00
20210;BME280;10264;53.178;5.840;2023-06-22T07:34:37;-16708.94;;;-141.76;100.00
20210;BME280;10264;53.178;5.840;2023-06-22T07:48:50;-16708.94;;;-141.76;100.00
20210;BME280;10264;53.178;5.840;2023-06-22T08:02:51;-16708.94;;;-141.76;100.00
20210;BME280;10264;53.178;5.840;2023-06-22T08:12:30;-16708.94;;;-141.76;100.00
20210;BME280;10264;53.178;5.840;2023-06-22T08:15:06;-16708.94;;;-141.76;100.00
20210;BME280;10264;53.178;5.840;2023-06-22T08:17:52;-16708.94;;;-141.76;100.00
20210;BME280;10264;53.178;5.840;2023-06-22T08:24:10;-16708.94;;;-141.76;100.00
20210;BME280;10264;53.178;5.840;2023-06-22T08:29:47;-16708.94;;;-141.76;100.00
20210;BME280;10264;53.178;5.840;2023-06-22T08:32:16;-16708.94;;;-141.76;100.00
20210;BME280;10264;53.178;5.840;2023-06-22T08:38:04;-16708.94;;;-141.76;100.00
20210;BME280;10264;53.178;5.840;2023-06-22T08:40:33;-16708.94;;;-141.76;100.00
20210;BME280;10264;53.178;5.840;2023-06-22T08:43:05;-16708.94;;;-141.76;100.00
20210;BME280;10264;53.178;5.840;2023-06-22T08:45:34;-16708.94;;;-141.76;100.00
20210;BME280;10264;53.178;5.840;2023-06-22T08:48:11;-16707.47;;;-141.76;100.00
20210;BME280;10264;53.178;5.840;2023-06-22T08:50:47;-15953.97;;;-141.76;100.00
20210;BME280;10264;53.178;5.840;2023-06-22T08:53:42;-10674.47;;;-141.76;100.00
20210;BME280;10264;53.178;5.840;2023-06-22T08:57:05;-594.56;;;-141.76;100.00
20210;BME280;10264;53.178;5.840;2023-06-22T09:00:04;2435.47;;;-141.76;100.00
20210;BME280;10264;53.178;5.840;2023-06-22T09:03:11;1172.59;;;-141.76;100.00
20210;BME280;10264;53.178;5.840;2023-06-22T09:05:46;-8157.41;;;-141.76;100.00
20210;BME280;10264;53.178;5.840;2023-06-22T09:08:20;-11429.22;;;-141.76;100.00
20210;BME280;10264;53.178;5.840;2023-06-22T09:14:08;27269.53;;;-141.76;100.00
20210;BME280;10264;53.178;5.840;2023-06-22T09:16:50;14076.50;;;-141.76;100.00
20210;BME280;10264;53.178;5.840;2023-06-22T09:19:19;21093.16;;;-141.76;100.00
20210;BME280;10264;53.178;5.840;2023-06-22T09:21:50;44294.22;;;-141.76;100.00
20210;BME280;10264;53.178;5.840;2023-06-22T09:24:35;7997.78;;;-141.76;100.00
20210;BME280;10264;53.178;5.840;2023-06-22T09:27:32;56794.50;;;-141.76;100.00
20210;BME280;10264;53.178;5.840;2023-06-22T09:30:07;55262.25;;;-141.76;100.00
20210;BME280;10264;53.178;5.840;2023-06-22T09:32:34;51887.38;;;-141.76;100.00
20210;BME280;10264;53.178;5.840;2023-06-22T09:35:11;63292.09;;;-141.76;100.00
20210;BME280;10264;53.178;5.840;2023-06-22T09:37:48;54081.47;;;-141.76;100.00
20210;BME280;10264;53.178;5.840;2023-06-22T09:40:23;50467.50;;;-141.76;100.00
20210;BME280;10264;53.178;5.840;2023-06-22T09:42:53;48191.69;;;-141.76;100.00
20210;BME280;10264;53.178;5.840;2023-06-22T09:45:28;53672.59;;;-141.76;100.00
20210;BME280;10264;53.178;5.840;2023-06-22T09:48:00;62116.53;;;-141.76;100.00
20210;BME280;10264;53.178;5.840;2023-06-22T09:50:46;61724.78;;;-141.76;100.00
20210;BME280;10264;53.178;5.840;2023-06-22T09:53:18;70875.56;;;-141.76;100.00
20210;BME280;10264;53.178;5.840;2023-06-22T09:56:11;86137.56;;;-141.76;100.00
20210;BME280;10264;53.178;5.840;2023-06-22T09:58:53;85482.09;;;-141.76;100.00
20210;BME280;10264;53.178;5.840;2023-06-22T10:01:42;76516.22;;;-141.76;100.00
20210;BME280;10264;53.178;5.840;2023-06-22T10:04:26;103849.94;;;-141.76;100.00
20210;BME280;10264;53.178;5.840;2023-06-22T10:07:07;104504.84;;;-141.76;100.00
20210;BME280;10264;53.178;5.840;2023-06-22T10:09:53;105599.28;;;-141.76;100.00
20210;BME280;10264;53.178;5.840;2023-06-22T10:16:12;100494.03;;;-141.76;100.00
20210;BME280;10264;53.178;5.840;2023-06-22T10:19:33;89947.44;;;-141.76;100.00
20210;BME280;10264;53.178;5.840;2023-06-22T10:22:46;80194.28;;;-141.76;100.00
20210;BME280;10264;53.178;5.840;2023-06-22T10:25:49;93824.41;;;-141.76;100.00
20210;BME280;10264;53.178;5.840;2023-06-22T10:29:07;86311.56;;;-141.76;100.00
20210;BME280;10264;53.178;5.840;2023-06-22T10:31:57;78599.03;;;-141.76;100.00
20210;BME280;10264;53.178;5.840;2023-06-22T10:34:38;84292.81;;;-141.76;100.00
20210;BME280;10264;53.178;5.840;2023-06-22T10:37:04;86756.72;;;-141.76;100.00
20210;BME280;10264;53.178;5.840;2023-06-22T10:39:31;107219.25;;;-141.76;100.00
20210;BME280;10264;53.178;5.840;2023-06-22T10:41:58;99447.91;;;-141.76;100.00
20210;BME280;10264;53.178;5.840;2023-06-22T10:44:27;91256.16;;;-141.76;100.00
20210;BME280;10264;53.178;5.840;2023-06-22T10:46:57;89813.75;;;-141.76;100.00
20210;BME280;10264;53.178;5.840;2023-06-22T10:49:26;73974.94;;;-141.76;100.00
20210;BME280;10264;53.178;5.840;2023-06-22T10:51:53;89271.00;;;-141.76;100.00
20210;BME280;10264;53.178;5.840;2023-06-22T10:54:20;95100.09;;;-141.76;100.00
20210;BME280;10264;53.178;5.840;2023-06-22T10:56:47;80901.28;;;-141.76;100.00
20210;BME280;10264;53.178;5.840;2023-06-22T10:59:14;82986.75;;;-141.76;100.00
20210;BME280;10264;53.178;5.840;2023-06-22T11:01:40;77775.44;;;-141.76;100.00
20210;BME280;10264;53.178;5.840;2023-06-22T11:04:11;77860.22;;;-141.76;100.00
20210;BME280;10264;53.178;5.840;2023-06-22T11:06:38;85267.66;;;-141.76;100.00
20210;BME280;10264;53.178;5.840;2023-06-22T11:09:12;91114.31;;;-141.76;100.00
20210;BME280;10264;53.178;5.840;2023-06-22T11:11:46;99514.91;;;-141.76;100.00
20210;BME280;10264;53.178;5.840;2023-06-22T11:14:15;91851.94;;;-141.76;100.00
20210;BME280;10264;53.178;5.840;2023-06-22T11:16:45;90615.94;;;-141.76;100.00
20210;BME280;10264;53.178;5.840;2023-06-22T11:19:14;90299.91;;;-141.76;100.00
20210;BME280;10264;53.178;5.840;2023-06-22T11:21:43;87230.28;;;-141.76;100.00
20210;BME280;10264;53.178;5.840;2023-06-22T11:24:10;80929.56;;;-141.76;100.00
20210;BME280;10264;53.178;5.840;2023-06-22T11:26:38;76397.16;;;-141.76;100.00
20210;BME280;10264;53.178;5.840;2023-06-22T13:28:52;110948.41;;;-141.76;100.00
20210;BME280;10264;53.178;5.840;2023-06-22T13:32:06;110159.88;;;-141.76;100.00
20210;BME280;10264;53.178;5.840;2023-06-22T13:41:50;109226.91;;;-141.76;100.00
20210;BME280;10264;53.178;5.840;2023-06-22T13:45:07;110978.97;;;-141.76;100.00
20210;BME280;10264;53.178;5.840;2023-06-22T14:11:37;102166.50;;;-141.76;100.00
20210;BME280;10264;53.178;5.840;2023-06-22T14:14:14;100873.97;;;-141.76;100.00
20210;BME280;10264;53.178;5.840;2023-06-22T14:17:02;98745.22;;;-141.76;100.00
20210;BME280;10264;53.178;5.840;2023-06-22T14:20:27;101081.25;;;-141.76;100.00
20210;BME280;10264;53.178;5.840;2023-06-22T14:26:28;101550.66;;;-141.76;100.00
20210;BME280;10264;53.178;5.840;2023-06-22T14:39:08;85724.84;;;-141.76;100.00
20210;BME280;10264;53.178;5.840;2023-06-22T14:42:07;79299.63;;;-141.76;100.00
20210;BME280;10264;53.178;5.840;2023-06-22T14:45:23;90875.25;;;-141.76;100.00
20210;BME280;10264;53.178;5.840;2023-06-22T14:48:23;87335.53;;;-141.76;100.00
20210;BME280;10264;53.178;5.840;2023-06-22T14:51:21;76964.16;;;-141.76;100.00
20210;BME280;10264;53.178;5.840;2023-06-22T14:57:22;73777.38;;;-141.76;100.00
20210;BME280;10264;53.178;5.840;2023-06-22T15:00:12;77400.03;;;-141.76;100.00
20210;BME280;10264;53.178;5.840;2023-06-22T15:06:23;82707.81;;;-141.76;100.00
20210;BME280;10264;53.178;5.840;2023-06-22T15:09:30;85352.63;;;-141.76;100.00
20210;BME280;10264;53.178;5.840;2023-06-22T15:12:33;84762.00;;;-141.76;100.00
20210;BME280;10264;53.178;5.840;2023-06-22T15:18:39;83767.09;;;-141.76;100.00
20210;BME280;10264;53.178;5.840;2023-06-22T15:57:03;81321.50;;;-141.76;100.00
20210;BME280;10264;53.178;5.840;2023-06-22T16:33:04;26378.81;;;-141.76;100.00
20210;BME280;10264;53.178;5.840;2023-06-22T16:43:19;19404.56;;;-141.76;100.00
20210;BME280;10264;53.178;5.840;2023-06-22T16:57:26;-1856.25;;;-141.76;100.00
20210;BME280;10264;53.178;5.840;2023-06-22T17:00:09;-3117.47;;;-141.76;100.00
20210;BME280;10264;53.178;5.840;2023-06-22T17:03:42;-5386.41;;;-141.76;100.00
20210;BME280;10264;53.178;5.840;2023-06-22T17:10:07;-13943.72;;;-141.76;100.00
20210;BME280;10264;53.178;5.840;2023-06-22T17:12:50;-15200.28;;;-141.76;100.00
20210;BME280;10264;53.178;5.840;2023-06-22T17:15:47;-16456.31;;;-141.76;100.00
20210;BME280;10264;53.178;5.840;2023-06-22T17:18:38;-16708.94;;;-141.76;100.00
20210;BME280;10264;53.178;5.840;2023-06-22T17:25:14;-16708.94;;;-141.76;100.00
20210;BME280;10264;53.178;5.840;2023-06-22T18:39:41;-16708.94;;;-141.76;100.00
20210;BME280;10264;53.178;5.840;2023-06-22T19:43:02;-16708.94;;;-141.76;100.00
